Time;durP1;ratioP1;P1;durP2;ratioP2;P2;SDS_P1;SDS_P2;PMS_P1;PMS_P2;Temp;Humidity;BMP_temperature;BMP_pressure;BME280_temperature;BME280_humidity;BME280_pressure;Samples;Min_cycle;Max_cycle;Signal;HPM_P1;HPM_P2
2021/07/29 00:01:22;;;;;;;13.88;5.20;;;;;;;21.63;65.74;99794.56;1438097;89;22549;-86
2021/07/29 00:03:48;;;;;;;30.60;6.70;;;;;;;21.62;65.67;99795.64;1440053;90;21685;-85
2021/07/29 00:06:16;;;;;;;30.82;5.15;;;;;;;21.62;65.73;99794.29;1433252;90;22307;-85
2021/07/29 00:08:42;;;;;;;15.05;5.12;;;;;;;21.64;65.96;99796.77;1426858;91;21583;-85
2021/07/29 00:11:09;;;;;;;16.80;6.12;;;;;;;21.67;65.97;99796.82;1431344;91;21479;-84
2021/07/29 00:13:38;;;;;;;10.03;5.12;;;;;;;21.69;66.26;99797.38;1433942;89;23591;-86
2021/07/29 00:16:05;;;;;;;12.03;5.67;;;;;;;21.71;66.24;99797.97;1437508;91;21479;-86
2021/07/29 00:21:16;;;;;;;16.48;5.15;;;;;;;21.79;65.45;99795.73;1436631;91;21590;-85
2021/07/29 00:23:45;;;;;;;20.92;5.55;;;;;;;21.79;65.58;99789.53;1435491;90;21464;-84
2021/07/29 00:26:11;;;;;;;17.35;7.12;;;;;;;21.76;65.09;99794.87;1429499;90;22412;-85
2021/07/29 00:28:39;;;;;;;18.65;6.70;;;;;;;21.73;65.05;99803.95;1435022;89;21451;-85
2021/07/29 00:31:04;;;;;;;23.87;10.28;;;;;;;21.71;65.38;99803.36;1421565;91;21466;-85
2021/07/29 00:33:31;;;;;;;15.98;6.22;;;;;;;21.71;65.32;99802.02;1437291;89;21420;-85
2021/07/29 00:35:57;;;;;;;38.33;8.15;;;;;;;21.71;65.26;99800.67;1417981;89;22589;-85
2021/07/29 00:38:23;;;;;;;16.45;6.55;;;;;;;21.73;64.94;99803.95;1421432;92;21791;-85
2021/07/29 00:40:49;;;;;;;15.55;6.70;;;;;;;21.71;64.92;99806.05;1429626;90;21412;-85
2021/07/29 00:43:16;;;;;;;15.95;5.15;;;;;;;21.69;64.94;99807.62;1422384;89;22403;-84
2021/07/29 00:45:46;;;;;;;13.85;5.75;;;;;;;21.57;64.92;99814.89;1429058;90;21405;-84
2021/07/29 00:48:13;;;;;;;10.18;5.50;;;;;;;21.43;64.81;99814.30;1421503;90;21420;-85
2021/07/29 00:50:41;;;;;;;16.35;4.85;;;;;;;21.30;65.59;99805.91;1429682;90;21538;-86
2021/07/29 00:53:09;;;;;;;11.15;4.75;;;;;;;21.22;66.30;99818.89;1423223;90;21480;-86
2021/07/29 00:55:35;;;;;;;8.58;4.90;;;;;;;21.12;66.68;99813.56;1431851;90;22353;-85
2021/07/29 00:58:02;;;;;;;17.95;5.12;;;;;;;21.05;67.20;99804.76;1448081;90;21442;-86
2021/07/29 01:00:28;;;;;;;13.18;5.53;;;;;;;20.98;67.12;99810.78;1444335;90;21516;-85
2021/07/29 01:02:54;;;;;;;12.10;4.72;;;;;;;20.88;67.42;99808.64;1450776;89;21471;-85
2021/07/29 01:05:21;;;;;;;14.60;4.53;;;;;;;20.84;67.70;99811.50;1449506;89;21405;-85
2021/07/29 01:07:49;;;;;;;9.48;4.67;;;;;;;20.79;67.87;99818.63;1430724;90;22016;-85
2021/07/29 01:10:17;;;;;;;10.78;4.87;;;;;;;20.77;67.98;99819.36;1439788;90;21979;-85
2021/07/29 01:12:43;;;;;;;14.58;5.37;;;;;;;20.73;69.29;99818.48;1425657;90;21576;-84
2021/07/29 01:15:10;;;;;;;12.23;4.67;;;;;;;20.72;68.84;99820.89;1439877;90;21621;-85
2021/07/29 01:17:36;;;;;;;14.50;5.67;;;;;;;20.72;68.67;99823.58;1437176;90;22468;-85
2021/07/29 01:20:08;;;;;;;21.42;9.45;;;;;;;20.70;69.07;99818.94;1431304;90;21509;-83
2021/07/29 01:22:37;;;;;;;13.62;5.17;;;;;;;20.67;68.91;99823.43;1426624;90;21594;-84
2021/07/29 01:25:05;;;;;;;15.08;5.85;;;;;;;20.61;68.91;99836.98;1438855;90;21479;-83
2021/07/29 01:27:32;;;;;;;13.55;5.58;;;;;;;20.58;69.51;99829.37;1442499;89;21578;-84
2021/07/29 01:30:01;;;;;;;13.08;5.47;;;;;;;20.59;69.20;99837.19;1437681;90;21560;-84
2021/07/29 01:32:27;;;;;;;18.57;4.45;;;;;;;20.61;69.80;99840.48;1424109;91;21668;-83
2021/07/29 01:34:55;;;;;;;13.98;5.08;;;;;;;20.65;69.18;99838.15;1424942;91;22447;-84
2021/07/29 01:37:21;;;;;;;9.90;5.50;;;;;;;20.60;69.57;99842.88;1431262;91;21494;-84
2021/07/29 01:39:47;;;;;;;14.47;5.43;;;;;;;20.61;69.20;99837.79;1423933;90;23465;-85
2021/07/29 01:42:16;;;;;;;9.93;5.33;;;;;;;20.63;69.14;99832.17;1422362;91;21517;-85
2021/07/29 01:44:43;;;;;;;11.53;5.03;;;;;;;20.63;69.63;99841.08;1424420;91;22106;-85
2021/07/29 01:47:11;;;;;;;13.95;5.37;;;;;;;20.65;69.42;99838.96;1416175;91;23694;-85
2021/07/29 01:49:37;;;;;;;16.10;5.90;;;;;;;20.67;69.63;99834.72;1419399;91;22609;-84
2021/07/29 01:52:04;;;;;;;14.20;5.20;;;;;;;20.70;69.44;99837.77;1396020;94;22397;-84
2021/07/29 01:54:30;;;;;;;10.55;5.62;;;;;;;20.73;69.36;99838.64;1417445;91;21383;-85
2021/07/29 01:56:56;;;;;;;10.70;4.97;;;;;;;20.71;69.47;99840.77;1433490;90;21516;-83
2021/07/29 01:59:23;;;;;;;9.93;5.92;;;;;;;20.71;69.24;99831.85;1416879;91;22395;-83
2021/07/29 02:01:49;;;;;;;10.40;5.08;;;;;;;20.67;69.45;99823.43;1445049;90;21501;-84
2021/07/29 02:04:16;;;;;;;13.53;5.20;;;;;;;20.66;69.71;99825.84;1444749;90;22018;-83
2021/07/29 02:06:42;;;;;;;11.88;5.00;;;;;;;20.64;69.59;99818.52;1446299;90;21648;-82
2021/07/29 02:09:08;;;;;;;9.60;4.55;;;;;;;20.63;69.93;99818.72;1447958;89;21427;-83
2021/07/29 02:11:36;;;;;;;13.90;6.10;;;;;;;20.59;70.18;99822.41;1445889;89;21383;-83
2021/07/29 02:14:02;;;;;;;10.13;5.53;;;;;;;20.58;69.96;99836.09;1434744;89;21471;-83
2021/07/29 02:16:29;;;;;;;13.35;5.97;;;;;;;20.54;69.87;99828.98;1423038;90;21434;-82
2021/07/29 02:18:55;;;;;;;13.62;5.22;;;;;;;20.54;69.88;99827.63;1440972;90;21420;-83
2021/07/29 02:21:21;;;;;;;11.33;4.75;;;;;;;20.51;70.31;99824.03;1443184;90;21538;-84
2021/07/29 02:23:47;;;;;;;9.43;4.33;;;;;;;20.46;70.56;99826.60;1444514;90;21552;-83
2021/07/29 02:26:15;;;;;;;15.15;5.12;;;;;;;20.31;70.82;99850.34;1450979;89;21359;-83
2021/07/29 02:28:42;;;;;;;16.07;4.95;;;;;;;20.21;70.33;99862.44;1449643;89;21456;-82
2021/07/29 02:31:08;;;;;;;8.10;5.42;;;;;;;20.05;70.32;99859.00;1441115;89;21531;-83
2021/07/29 02:33:34;;;;;;;15.03;5.40;;;;;;;19.95;70.61;99863.55;1438301;89;22579;-82
2021/07/29 02:36:07;;;;;;;13.53;4.57;;;;;;;19.85;70.73;99867.27;1452225;90;21434;-82
2021/07/29 02:38:33;;;;;;;12.80;4.20;;;;;;;19.71;71.30;99861.72;1450944;90;21656;-82
2021/07/29 02:40:59;;;;;;;13.63;4.33;;;;;;;19.69;71.28;99863.30;1445725;90;21493;-82
2021/07/29 02:43:26;;;;;;;14.67;5.30;;;;;;;19.68;71.46;99856.30;1445533;89;21352;-82
2021/07/29 02:45:52;;;;;;;11.17;4.97;;;;;;;19.71;71.82;99859.03;1447416;89;22343;-82
2021/07/29 02:48:18;;;;;;;17.13;5.97;;;;;;;19.72;71.85;99845.41;1440325;90;21619;-83
2021/07/29 02:50:53;;;;;;;12.57;6.07;;;;;;;19.71;72.15;99859.03;1452256;89;22240;-83
2021/07/29 02:53:22;;;;;;;10.53;5.20;;;;;;;19.65;72.00;99863.92;1446556;89;21426;-83
2021/07/29 02:55:48;;;;;;;9.13;4.87;;;;;;;19.64;72.11;99855.05;1449200;89;21597;-83
2021/07/29 02:58:15;;;;;;;13.77;5.30;;;;;;;19.65;72.19;99865.27;1452872;89;21501;-82
2021/07/29 03:00:41;;;;;;;11.30;4.30;;;;;;;19.65;72.12;99876.88;1456710;89;21508;-83
2021/07/29 03:03:07;;;;;;;10.63;5.40;;;;;;;19.65;72.10;99874.66;1449850;89;22417;-83
2021/07/29 03:05:33;;;;;;;8.50;5.33;;;;;;;19.65;72.15;99873.31;1448533;89;21636;-82
2021/07/29 03:08:01;;;;;;;11.37;5.53;;;;;;;19.63;72.38;99877.58;1430396;89;21470;-83
2021/07/29 03:10:28;;;;;;;12.13;6.30;;;;;;;19.64;72.12;99876.52;1453681;89;21456;-84
2021/07/29 03:12:54;;;;;;;11.67;5.50;;;;;;;19.61;71.82;99872.94;1424513;89;21575;-83
2021/07/29 03:15:20;;;;;;;9.40;5.37;;;;;;;19.60;72.36;99879.36;1429944;89;21657;-82
2021/07/29 03:17:46;;;;;;;11.73;4.87;;;;;;;19.63;72.34;99873.55;1428874;90;21389;-82
2021/07/29 03:20:13;;;;;;;13.13;5.27;;;;;;;19.66;72.28;99875.83;1428406;90;22515;-84
2021/07/29 03:22:39;;;;;;;8.17;5.43;;;;;;;19.68;72.21;99870.22;1428541;91;22418;-83
2021/07/29 03:25:06;;;;;;;11.63;5.63;;;;;;;19.72;72.55;99866.06;1423391;91;23622;-83
2021/07/29 03:27:32;;;;;;;9.07;5.47;;;;;;;19.68;72.42;99868.38;1422137;92;22429;-84
2021/07/29 03:29:58;;;;;;;13.87;5.67;;;;;;;19.69;72.23;99868.67;1422828;90;21650;-83
2021/07/29 03:32:24;;;;;;;7.43;4.80;;;;;;;19.72;72.16;99869.56;1419315;91;22497;-83
2021/07/29 03:34:50;;;;;;;10.87;5.33;;;;;;;19.74;72.18;99866.15;1425977;90;21494;-83
2021/07/29 03:37:17;;;;;;;9.63;4.97;;;;;;;19.77;72.32;99878.31;1421484;92;21450;-83
2021/07/29 03:39:43;;;;;;;12.03;5.47;;;;;;;19.80;72.21;99871.97;1422571;91;21530;-83
2021/07/29 03:42:09;;;;;;;12.30;5.70;;;;;;;19.87;72.12;99881.30;1447563;90;22300;-84
2021/07/29 03:44:35;;;;;;;14.13;5.73;;;;;;;19.93;72.05;99872.88;1448747;90;21449;-83
2021/07/29 03:47:01;;;;;;;12.97;6.30;;;;;;;19.97;72.06;99878.12;1438388;89;21648;-82
2021/07/29 03:49:27;;;;;;;17.53;6.43;;;;;;;20.00;71.88;99875.80;1442232;89;21441;-84
2021/07/29 03:51:54;;;;;;;12.13;7.03;;;;;;;20.01;71.83;99875.27;1437855;90;21419;-85
2021/07/29 03:54:20;;;;;;;12.37;5.70;;;;;;;20.05;72.19;99873.77;1439823;90;21375;-84
2021/07/29 03:56:46;;;;;;;12.20;6.47;;;;;;;20.11;72.16;99878.28;1447039;90;21441;-84
2021/07/29 03:59:12;;;;;;;13.55;6.30;;;;;;;20.18;72.02;99869.61;1443473;90;21448;-84
2021/07/29 04:01:38;;;;;;;14.50;6.42;;;;;;;20.23;71.87;99870.30;1430030;89;21538;-84
2021/07/29 04:04:04;;;;;;;14.67;6.57;;;;;;;20.25;71.82;99870.37;1441120;89;21435;-83
2021/07/29 04:06:30;;;;;;;21.20;7.10;;;;;;;20.29;71.59;99862.14;1427129;92;21442;-83
2021/07/29 04:08:56;;;;;;;14.78;7.70;;;;;;;20.32;71.51;99864.09;1422733;90;21458;-83
2021/07/29 04:11:22;;;;;;;16.95;7.03;;;;;;;20.36;71.53;99862.58;1438378;90;21617;-84
2021/07/29 04:13:48;;;;;;;14.47;5.40;;;;;;;20.40;71.51;99853.01;1437967;90;21552;-83
2021/07/29 04:16:14;;;;;;;24.47;7.62;;;;;;;20.45;71.66;99853.16;1427095;90;21502;-83
2021/07/29 04:18:42;;;;;;;14.10;7.37;;;;;;;20.52;71.64;99866.01;1432125;89;21539;-83
2021/07/29 04:21:15;;;;;;;12.65;6.92;;;;;;;20.54;71.59;99868.48;1424828;91;21538;-83
2021/07/29 04:23:42;;;;;;;15.15;5.20;;;;;;;20.57;71.58;99856.78;1428151;91;21923;-84
2021/07/29 04:26:09;;;;;;;10.18;5.30;;;;;;;20.65;71.40;99848.91;1398926;93;21495;-82
2021/07/29 04:28:35;;;;;;;15.20;7.00;;;;;;;20.71;71.32;99846.14;1418167;91;21509;-83
2021/07/29 04:31:01;;;;;;;16.55;6.67;;;;;;;20.70;71.04;99847.17;1416697;91;22373;-85
2021/07/29 04:33:27;;;;;;;12.65;5.58;;;;;;;20.75;70.94;99852.41;1420897;91;21502;-84
2021/07/29 04:35:53;;;;;;;15.25;5.70;;;;;;;20.79;70.99;99862.99;1421306;91;22330;-85
2021/07/29 04:38:19;;;;;;;19.15;7.50;;;;;;;20.87;71.08;99864.83;1417956;91;21517;-85
2021/07/29 04:40:45;;;;;;;9.78;5.72;;;;;;;20.98;71.00;99883.41;1421710;91;21517;-84
2021/07/29 04:43:11;;;;;;;12.10;5.70;;;;;;;21.08;71.24;99885.53;1423031;91;21545;-85
2021/07/29 04:45:38;;;;;;;11.53;4.95;;;;;;;21.23;71.29;99887.27;1418850;91;22337;-85
2021/07/29 04:48:04;;;;;;;21.90;6.67;;;;;;;21.43;70.99;99888.33;1421464;91;21412;-84
2021/07/29 04:50:30;;;;;;;11.12;4.70;;;;;;;21.66;70.72;99917.69;1384758;93;22382;-83
2021/07/29 04:52:56;;;;;;;9.13;5.15;;;;;;;21.88;70.14;99928.72;1380803;94;21451;-84
2021/07/29 04:55:22;;;;;;;13.60;5.65;;;;;;;22.05;69.62;99931.00;1390235;94;21562;-83
2021/07/29 04:57:48;;;;;;;16.37;5.53;;;;;;;22.17;69.42;99937.22;1412376;91;21612;-85
2021/07/29 05:00:15;;;;;;;13.55;5.75;;;;;;;22.34;69.71;99941.38;1419774;91;21638;-83
2021/07/29 05:02:41;;;;;;;13.55;5.58;;;;;;;22.53;69.62;99946.91;1400751;91;22006;-83
2021/07/29 05:05:09;;;;;;;9.63;5.35;;;;;;;22.71;69.57;99941.06;1410356;92;21556;-83
2021/07/29 05:07:35;;;;;;;9.35;6.20;;;;;;;22.87;69.27;99939.47;1425246;92;21531;-83
2021/07/29 05:10:01;;;;;;;33.73;6.75;;;;;;;22.95;67.96;99957.47;1426107;92;21428;-82
2021/07/29 05:12:28;;;;;;;15.90;6.75;;;;;;;22.91;67.73;99942.81;1406491;92;21460;-82
2021/07/29 05:14:56;;;;;;;27.90;6.62;;;;;;;22.91;67.73;99942.81;1409935;92;21526;-82
2021/07/29 05:17:22;;;;;;;32.05;7.20;;;;;;;22.91;67.73;99940.11;1411669;92;21480;-83
2021/07/29 05:19:48;;;;;;;14.53;6.00;;;;;;;22.91;67.73;99940.11;1423991;91;21866;-82
2021/07/29 05:22:15;;;;;;;16.55;6.58;;;;;;;23.09;67.20;99941.00;1411862;91;21656;-83
2021/07/29 05:24:41;;;;;;;16.30;5.67;;;;;;;23.09;67.20;99941.00;1421727;90;21510;-83
2021/07/29 05:27:07;;;;;;;20.82;6.37;;;;;;;23.15;66.51;99947.59;1410410;92;21450;-82
2021/07/29 05:29:33;;;;;;;20.08;7.22;;;;;;;23.19;66.45;99946.61;1386755;93;21617;-82
2021/07/29 05:31:59;;;;;;;12.45;6.12;;;;;;;23.20;66.59;99946.88;1386672;94;22440;-82
2021/07/29 05:34:28;;;;;;;15.53;6.08;;;;;;;23.17;66.05;99941.44;1390463;94;21421;-82
2021/07/29 05:36:53;;;;;;;18.90;6.28;;;;;;;23.13;65.70;99956.99;1389246;92;21565;-83
2021/07/29 05:39:19;;;;;;;13.25;5.60;;;;;;;23.05;65.92;99959.56;1385401;94;21621;-84
2021/07/29 05:41:45;;;;;;;9.83;5.50;;;;;;;23.04;66.09;99950.35;1392886;94;22368;-83
2021/07/29 05:44:14;;;;;;;13.08;5.45;;;;;;;23.04;66.19;99936.86;1385132;92;21657;-83
2021/07/29 05:46:40;;;;;;;10.30;5.78;;;;;;;23.06;66.11;99923.95;1427513;91;21575;-84
2021/07/29 05:49:07;;;;;;;19.25;6.30;;;;;;;23.07;66.02;99910.73;1410637;91;21487;-84
2021/07/29 05:51:33;;;;;;;16.25;6.28;;;;;;;23.08;65.71;99917.79;1414576;91;21597;-84
2021/07/29 05:53:59;;;;;;;38.53;7.55;;;;;;;23.06;65.50;99922.59;1418186;91;21517;-84
2021/07/29 05:56:25;;;;;;;11.73;5.47;;;;;;;23.03;65.57;99913.10;1416826;91;22314;-82
2021/07/29 05:58:51;;;;;;;17.52;6.28;;;;;;;23.03;65.79;99913.64;1403935;91;21472;-82
2021/07/29 06:01:17;;;;;;;23.60;7.37;;;;;;;23.07;65.76;99919.64;1409301;92;23418;-82
2021/07/29 06:03:43;;;;;;;19.95;6.53;;;;;;;23.07;64.86;99924.23;1425044;92;21509;-83
2021/07/29 06:06:09;;;;;;;12.18;5.78;;;;;;;23.07;63.97;99938.53;1422777;91;21376;-82
2021/07/29 06:08:35;;;;;;;14.85;6.97;;;;;;;23.07;63.61;99947.16;1419618;92;21473;-83
2021/07/29 06:11:03;;;;;;;15.05;6.28;;;;;;;23.14;64.28;99950.02;1405163;92;21432;-83
2021/07/29 06:13:31;;;;;;;10.05;5.28;;;;;;;23.18;64.59;99958.44;1387876;94;21468;-81
2021/07/29 06:16:03;;;;;;;11.88;5.55;;;;;;;23.26;64.27;99975.61;1391088;94;22496;-81
2021/07/29 06:18:30;;;;;;;17.85;6.25;;;;;;;23.36;64.08;99983.91;1370424;94;21543;-81
2021/07/29 06:20:56;;;;;;;18.87;5.37;;;;;;;23.52;64.21;99984.16;1386200;92;21471;-81
2021/07/29 06:23:23;;;;;;;25.25;6.70;;;;;;;23.60;63.85;99987.82;1417608;91;21650;-83
2021/07/29 06:25:49;;;;;;;12.95;5.83;;;;;;;23.61;62.99;99992.15;1407265;93;21672;-81
2021/07/29 06:28:16;;;;;;;17.02;7.17;;;;;;;23.58;62.93;99986.70;1417191;92;21486;-80
2021/07/29 06:30:44;;;;;;;11.57;5.70;;;;;;;23.61;62.69;99988.09;1449802;89;22522;-80
2021/07/29 06:33:10;;;;;;;19.37;6.22;;;;;;;23.62;62.28;99985.67;1452589;89;21493;-80
2021/07/29 06:35:36;;;;;;;18.00;6.75;;;;;;;23.67;62.55;99982.25;1447459;90;22423;-81
2021/07/29 06:38:02;;;;;;;19.15;7.45;;;;;;;23.78;62.48;99988.14;1453916;89;21564;-81
2021/07/29 06:40:28;;;;;;;14.20;6.20;;;;;;;23.86;61.98;99986.39;1444523;89;21486;-79
2021/07/29 06:42:55;;;;;;;15.58;6.28;;;;;;;24.03;61.56;99998.55;1441212;90;22300;-80
2021/07/29 06:45:21;;;;;;;16.55;6.97;;;;;;;24.25;61.47;99999.41;1447551;90;21502;-81
2021/07/29 06:47:47;;;;;;;26.23;6.55;;;;;;;24.41;61.06;100001.00;1432966;90;21353;-81
2021/07/29 06:50:13;;;;;;;14.38;6.30;;;;;;;24.52;60.43;100004.16;1446635;89;21487;-81
2021/07/29 06:52:39;;;;;;;18.42;6.72;;;;;;;24.57;60.05;100004.75;1445529;90;21640;-80
2021/07/29 06:55:06;;;;;;;22.07;7.47;;;;;;;24.55;60.09;100010.42;1436619;90;21509;-80
2021/07/29 06:57:33;;;;;;;20.60;6.83;;;;;;;24.56;59.83;100016.11;1445178;90;21391;-79
2021/07/29 06:59:59;;;;;;;18.10;8.63;;;;;;;24.55;60.10;100018.53;1436399;90;21526;-81
2021/07/29 07:02:25;;;;;;;11.05;6.10;;;;;;;24.57;59.85;100013.70;1441213;90;21553;-80
2021/07/29 07:04:51;;;;;;;16.35;6.15;;;;;;;24.58;60.02;100023.45;1439937;90;21691;-81
2021/07/29 07:07:17;;;;;;;18.80;6.75;;;;;;;24.54;59.85;100023.64;1444255;90;21923;-81
2021/07/29 07:09:45;;;;;;;83.78;10.60;;;;;;;24.72;59.81;100029.31;1450765;90;22344;-80
2021/07/29 07:12:11;;;;;;;15.45;7.97;;;;;;;24.95;59.83;100025.55;1431656;90;21457;-81
2021/07/29 07:14:37;;;;;;;13.78;6.58;;;;;;;25.10;59.25;100027.07;1443276;89;22647;-81
2021/07/29 07:17:06;;;;;;;15.63;7.83;;;;;;;25.29;58.75;100025.40;1444299;90;21698;-80
2021/07/29 07:19:35;;;;;;;22.93;8.30;;;;;;;25.42;58.32;100023.11;1443563;90;21470;-81
2021/07/29 07:22:02;;;;;;;11.28;6.42;;;;;;;25.34;58.06;100018.15;1449007;90;21500;-81
2021/07/29 07:24:29;;;;;;;17.98;6.50;;;;;;;25.45;58.06;100019.08;1446643;90;22343;-81
2021/07/29 07:26:55;;;;;;;15.90;6.28;;;;;;;25.44;57.67;100010.14;1442775;89;21641;-81
2021/07/29 07:29:21;;;;;;;13.83;6.65;;;;;;;25.38;57.65;100015.77;1442014;90;21419;-82
2021/07/29 07:31:47;;;;;;;13.50;6.92;;;;;;;25.26;57.65;100003.73;1444037;90;21575;-81
2021/07/29 07:34:13;;;;;;;15.80;6.62;;;;;;;25.20;58.16;99997.95;1445826;90;21479;-81
2021/07/29 07:36:39;;;;;;;10.82;6.70;;;;;;;25.24;58.22;99986.10;1426721;90;21456;-81
2021/07/29 07:39:07;;;;;;;16.97;7.22;;;;;;;25.37;58.24;99981.61;1435177;90;21509;-81
2021/07/29 07:41:34;;;;;;;21.85;7.50;;;;;;;25.55;58.17;99982.61;1443526;90;21553;-81
2021/07/29 07:44:00;;;;;;;15.85;7.05;;;;;;;25.54;57.52;99982.31;1442716;90;21607;-81
2021/07/29 07:46:26;;;;;;;13.90;6.70;;;;;;;25.58;57.60;99988.88;1447372;90;21743;-82
2021/07/29 07:48:52;;;;;;;22.05;7.33;;;;;;;25.68;57.62;99988.67;1434759;90;22255;-81
2021/07/29 07:51:18;;;;;;;15.40;6.35;;;;;;;25.79;57.54;99983.63;1445659;90;21456;-81
2021/07/29 07:53:44;;;;;;;13.88;6.53;;;;;;;25.89;57.31;99982.36;1449092;90;22388;-81
2021/07/29 07:56:10;;;;;;;51.08;9.50;;;;;;;26.02;57.18;99981.12;1449106;89;21470;-81
2021/07/29 07:58:36;;;;;;;13.62;6.08;;;;;;;26.17;57.18;99985.82;1445456;90;21479;-81
2021/07/29 08:01:06;;;;;;;19.65;6.75;;;;;;;26.25;56.72;99990.76;1443938;90;21553;-82
2021/07/29 08:03:32;;;;;;;21.65;6.80;;;;;;;26.34;56.50;99995.96;1439459;90;21562;-84
2021/07/29 08:06:03;;;;;;;14.68;7.22;;;;;;;26.36;56.18;99993.81;1442245;90;21449;-83
2021/07/29 08:08:30;;;;;;;15.93;5.75;;;;;;;26.53;56.49;100005.33;1440413;90;21472;-83
2021/07/29 08:10:56;;;;;;;12.98;6.15;;;;;;;26.43;55.43;100006.59;1442048;90;21693;-85
2021/07/29 08:13:22;;;;;;;17.17;6.60;;;;;;;26.49;56.13;100006.89;1450261;90;21456;-84
2021/07/29 08:15:48;;;;;;;11.68;6.40;;;;;;;26.59;54.96;100010.80;1450824;90;21441;-84
2021/07/29 08:18:15;;;;;;;18.73;6.53;;;;;;;26.71;55.67;100016.81;1447158;90;21413;-84
2021/07/29 08:20:44;;;;;;;11.03;6.37;;;;;;;26.85;55.57;100025.30;1440691;90;21362;-84
2021/07/29 08:23:11;;;;;;;12.53;6.10;;;;;;;26.96;55.36;100025.07;1446255;89;21471;-84
2021/07/29 08:28:16;;;;;;;21.35;7.25;;;;;;;26.97;54.36;100034.84;1445942;90;21346;-84
2021/07/29 08:30:43;;;;;;;16.07;6.37;;;;;;;27.12;54.21;100034.63;1444961;90;21782;-84
2021/07/29 08:33:11;;;;;;;18.07;6.92;;;;;;;27.28;54.44;100034.17;1441458;90;21589;-84
2021/07/29 08:35:38;;;;;;;16.37;6.28;;;;;;;27.41;54.29;100039.88;1443606;90;21704;-84
2021/07/29 08:38:07;;;;;;;14.85;6.72;;;;;;;27.50;53.75;100042.89;1436918;90;21342;-83
2021/07/29 08:40:34;;;;;;;13.15;6.58;;;;;;;27.71;53.67;100048.36;1419947;90;21461;-83
2021/07/29 08:43:01;;;;;;;15.55;6.10;;;;;;;27.80;52.74;100047.59;1430852;90;21288;-83
2021/07/29 08:45:31;;;;;;;14.25;5.42;;;;;;;27.95;52.51;100048.14;1442727;90;21427;-84
2021/07/29 08:47:59;;;;;;;10.18;6.35;;;;;;;28.12;51.65;100041.88;1442557;90;21494;-83
2021/07/29 08:50:25;;;;;;;10.20;4.92;;;;;;;28.10;50.60;100054.92;1443920;90;21368;-84
2021/07/29 08:52:52;;;;;;;15.75;5.97;;;;;;;28.25;51.29;100053.28;1447215;90;21376;-83
2021/07/29 08:55:19;;;;;;;14.58;5.45;;;;;;;28.50;51.13;100057.91;1437742;90;21376;-85
2021/07/29 08:57:45;;;;;;;12.18;5.80;;;;;;;28.77;50.35;100057.03;1444640;90;21507;-84
2021/07/29 09:00:14;;;;;;;14.58;6.03;;;;;;;29.01;50.21;100057.75;1446947;90;21427;-83
2021/07/29 09:02:40;;;;;;;12.18;5.80;;;;;;;28.99;50.25;100061.30;1450006;90;21369;-83
2021/07/29 09:05:15;;;;;;;16.00;6.00;;;;;;;28.59;49.62;100058.16;1443588;90;21405;-83
2021/07/29 09:07:47;;;;;;;14.33;5.65;;;;;;;28.35;50.74;100066.34;1450359;90;22594;-84
2021/07/29 09:10:26;;;;;;;10.43;5.50;;;;;;;28.43;51.22;100064.20;1437249;90;22588;-84
2021/07/29 09:13:17;;;;;;;13.88;5.70;;;;;;;28.66;50.79;100061.42;1436637;90;21495;-84
2021/07/29 09:15:44;;;;;;;14.65;6.37;;;;;;;28.57;51.03;100063.90;1437656;90;22824;-83
2021/07/29 09:18:14;;;;;;;11.60;6.42;;;;;;;28.70;51.46;100063.30;1436195;90;21523;-83
2021/07/29 09:20:40;;;;;;;9.55;5.67;;;;;;;28.99;50.63;100066.19;1422272;92;23386;-83
2021/07/29 09:23:19;;;;;;;37.45;7.47;;;;;;;29.03;49.92;100067.84;1425573;92;21442;-83
2021/07/29 09:26:00;;;;;;;16.57;7.12;;;;;;;28.99;49.91;100064.02;1429693;91;22337;-82
2021/07/29 09:28:39;;;;;;;19.42;5.62;;;;;;;28.88;49.90;100065.15;1433201;90;21369;-83
2021/07/29 09:31:20;;;;;;;17.55;6.95;;;;;;;28.46;50.72;100058.20;1450624;90;21553;-82
2021/07/29 09:33:59;;;;;;;12.80;6.47;;;;;;;28.46;50.72;100058.20;1444150;90;21456;-82
2021/07/29 09:36:28;;;;;;;14.03;6.25;;;;;;;28.39;51.07;100072.59;1448021;90;21390;-82
2021/07/29 09:39:22;;;;;;;15.85;5.47;;;;;;;28.59;50.58;100074.49;1444938;89;21369;-82
2021/07/29 09:41:58;;;;;;;12.03;6.75;;;;;;;28.93;50.44;100071.39;1412491;91;21363;-82
2021/07/29 09:44:45;;;;;;;10.95;6.65;;;;;;;29.08;49.79;100070.55;1413756;92;21527;-83
2021/07/29 09:47:12;;;;;;;9.78;6.37;;;;;;;28.90;50.02;100071.95;1382978;94;21569;-82
2021/07/29 09:49:40;;;;;;;11.45;5.95;;;;;;;28.76;49.11;100072.27;1401634;93;22460;-83
2021/07/29 09:52:07;;;;;;;9.55;5.78;;;;;;;28.80;50.19;100069.28;1406439;93;21400;-83
2021/07/29 09:54:35;;;;;;;8.60;5.90;;;;;;;29.11;50.06;100072.70;1403892;93;21399;-82
2021/07/29 09:57:01;;;;;;;11.95;6.20;;;;;;;29.12;49.44;100070.27;1386541;93;21473;-82
2021/07/29 09:59:28;;;;;;;18.67;6.08;;;;;;;29.28;48.86;100071.00;1406336;93;22464;-83
2021/07/29 10:01:55;;;;;;;15.90;6.15;;;;;;;29.51;47.95;100065.41;1406717;92;22391;-83
2021/07/29 10:04:45;;;;;;;11.48;5.87;;;;;;;29.63;47.13;100065.09;1403115;93;21422;-83
2021/07/29 10:07:29;;;;;;;48.48;7.78;;;;;;;29.88;47.62;100063.55;1408499;92;21547;-83
2021/07/29 10:09:58;;;;;;;11.33;6.75;;;;;;;29.94;47.13;100061.59;1399985;92;21421;-83
2021/07/29 10:12:30;;;;;;;11.73;6.75;;;;;;;29.85;47.95;100066.04;1391469;93;21414;-82
2021/07/29 10:14:59;;;;;;;12.63;5.83;;;;;;;29.98;47.74;100062.67;1407037;93;21406;-83
2021/07/29 10:17:43;;;;;;;11.55;5.35;;;;;;;29.99;47.01;100060.20;1402530;93;22225;-83
2021/07/29 10:20:20;;;;;;;6.92;4.75;;;;;;;29.87;46.22;100063.85;1397961;93;21567;-82
2021/07/29 10:22:49;;;;;;;12.23;5.80;;;;;;;29.17;45.89;100064.77;1408735;93;21378;-82
2021/07/29 10:25:16;;;;;;;11.73;5.00;;;;;;;29.33;47.54;100062.80;1404850;93;22562;-82
2021/07/29 10:28:04;;;;;;;8.50;5.17;;;;;;;29.36;47.29;100062.23;1393493;93;21909;-82
2021/07/29 10:30:36;;;;;;;12.90;5.67;;;;;;;29.45;47.10;100059.73;1394199;93;21414;-83
2021/07/29 10:33:03;;;;;;;9.23;5.90;;;;;;;29.55;46.21;100062.41;1399187;93;21517;-83
2021/07/29 10:35:36;;;;;;;13.93;5.42;;;;;;;29.45;46.61;100059.18;1379762;93;22377;-83
2021/07/29 10:38:02;;;;;;;15.23;5.87;;;;;;;29.77;46.70;100060.63;1411137;93;21516;-82
2021/07/29 10:40:34;;;;;;;15.03;5.12;;;;;;;29.96;46.62;100064.05;1402089;93;21580;-83
2021/07/29 10:43:29;;;;;;;11.38;6.40;;;;;;;29.87;46.92;100063.85;1406090;92;21384;-83
2021/07/29 10:45:57;;;;;;;9.93;6.17;;;;;;;29.73;47.08;100060.95;1401239;93;21620;-82
2021/07/29 10:48:51;;;;;;;12.88;6.92;;;;;;;29.67;47.74;100064.81;1428351;90;21789;-82
2021/07/29 10:51:25;;;;;;;12.23;4.83;;;;;;;29.74;47.84;100065.84;1440022;90;21355;-83
2021/07/29 10:53:57;;;;;;;11.83;6.10;;;;;;;30.10;47.19;100060.38;1429496;91;21429;-83
2021/07/29 10:56:26;;;;;;;8.70;5.45;;;;;;;30.56;45.96;100061.33;1429701;90;22372;-83
2021/07/29 10:58:56;;;;;;;17.98;6.20;;;;;;;30.89;44.99;100061.52;1440008;90;21425;-83
2021/07/29 11:01:39;;;;;;;8.23;6.37;;;;;;;30.99;44.44;100057.31;1443762;90;21401;-83
2021/07/29 11:04:05;;;;;;;11.78;5.53;;;;;;;31.05;45.09;100055.88;1422678;90;21461;-83
2021/07/29 11:06:37;;;;;;;5.20;4.65;;;;;;;30.91;44.87;100059.31;1437747;90;21376;-83
2021/07/29 11:09:18;;;;;;;10.90;5.58;;;;;;;30.78;42.69;100053.16;1440026;90;21498;-83
2021/07/29 11:11:55;;;;;;;15.95;6.03;;;;;;;30.54;44.42;100058.06;1399943;92;21639;-82
2021/07/29 11:14:33;;;;;;;9.23;5.47;;;;;;;30.32;44.97;100067.30;1399523;92;21385;-84
2021/07/29 11:17:06;;;;;;;12.82;5.97;;;;;;;30.20;45.26;100060.02;1412588;92;21528;-83
2021/07/29 11:19:48;;;;;;;9.23;6.42;;;;;;;30.04;45.39;100058.80;1443803;89;21613;-83
2021/07/29 11:22:15;;;;;;;9.93;5.15;;;;;;;30.06;44.95;100055.77;1426894;91;21435;-82
2021/07/29 11:24:42;;;;;;;8.15;5.30;;;;;;;30.24;45.34;100056.99;1403407;91;22385;-83
2021/07/29 11:27:16;;;;;;;9.68;4.53;;;;;;;30.40;45.95;100054.39;1415772;92;21378;-83
2021/07/29 11:29:57;;;;;;;17.10;5.22;;;;;;;30.76;45.35;100048.00;1442291;90;21471;-83
2021/07/29 11:32:24;;;;;;;10.10;5.30;;;;;;;31.20;44.26;100057.84;1414590;91;21563;-83
2021/07/29 11:34:57;;;;;;;12.88;5.25;;;;;;;31.35;43.86;100052.75;1441262;89;22346;-83